ADDS METAR Data INFO
IDs: Format: Raw Decoded Include TAF

Data at: 1505 UTC 23 Oct 2017

KGRI 231453Z 33020G28KT 10SM CLR 14/00 A3013 RMK AO2 PK WND 34028/1445 SLP206 T01390000 51036
KGRI 231353Z 33022G28KT 10SM OVC100 14/01 A3010 RMK AO2 PK WND 33028/1352 PRESRR SLP197 T01440011
KGRI 231253Z 32012KT 10SM SCT110 13/04 A3006 RMK AO2 SLP182 T01330044
KGRI 231153Z 33014KT 10SM CLR 13/04 A3001 RMK AO2 PK WND 34031/1123 SLP165 T01330039 10150 20083 53035
KGRI 231053Z AUTO 34021G26KT 10SM FEW120 14/04 A2998 RMK AO2 PK WND 34028/1033 SLP151 T01440039
KGRI 230953Z AUTO 33016KT 10SM CLR 13/03 A2994 RMK AO2 SLP135 T01280028
KGRI 230853Z AUTO 28008KT 10SM CLR 09/01 A2991 RMK AO2 SLP126 T00890006 55005
KGRI 230753Z AUTO 24009KT 10SM CLR 09/M01 A2989 RMK AO2 SLP122 T00941006
KGRI 230653Z AUTO 24010KT 10SM CLR 11/M01 A2992 RMK AO2 SLP130 T01061011
KGRI 230553Z AUTO 22010KT 10SM CLR 12/M01 A2992 RMK AO2 SLP132 T01171011 10144 20106 402110000 58015
KGRI 230453Z AUTO 21013KT 10SM CLR 13/M02 A2994 RMK AO2 SLP138 T01331022
KGRI 230353Z AUTO 20012KT 10SM CLR 13/M02 A2996 RMK AO2 SLP147 T01331017
KGRI 230253Z AUTO 19009KT 10SM CLR 11/00 A2997 RMK AO2 SLP156 T01110000 58002
KGRI 230153Z AUTO 18007KT 10SM CLR 11/01 A2998 RMK AO2 SLP160 T01110006
KGRI 230053Z 18008KT 10SM CLR 12/00 A2999 RMK AO2 SLP168 T01220000
KGRI 222353Z 17007KT 10SM CLR 15/00 A2998 RMK AO2 SLP160 T01500000 10211 20150 58012
KGRI 222253Z 24008KT 10SM CLR 19/M01 A3000 RMK AO2 SLP164 T01891011
KGRI 222153Z 25013KT 10SM CLR 21/M02 A3001 RMK AO2 SLP166 T02061022
KGRI 222053Z 27014KT 10SM CLR 21/M04 A3002 RMK AO2 SLP169 T02061039 56025
KGRI 221953Z 27012KT 10SM CLR 21/M03 A3004 RMK AO2 SLP176 T02061028
KGRI 221853Z 25014KT 10SM CLR 20/M04 A3006 RMK AO2 SLP184 T02001044
KGRI 221753Z 24014G19KT 10SM CLR 18/M02 A3009 RMK AO2 SLP196 T01831017 10183 20000 58016
KGRI 221653Z 22012KT 10SM CLR 16/01 A3012 RMK AO2 SLP207 T01560006
KGRI 221553Z 21008KT 10SM CLR 13/01 A3014 RMK AO2 SLP214 T01280011
KGRI 221453Z 24005KT 10SM CLR 09/02 A3014 RMK AO2 SLP218 T00890017 53003
KGRI 221353Z 24007KT 10SM CLR 05/01 A3013 RMK AO2 SLP218 T00500011
KGRI 221253Z 25003KT 10SM CLR 01/M01 A3012 RMK AO2 SLP214 T00061006
KGRI 221153Z 00000KT 10SM CLR 01/00 A3013 RMK AO2 SLP217 T00110000 10044 20011 51022
KGRI 221053Z AUTO 25004KT 10SM CLR 02/01 A3011 RMK AO2 SLP207 T00220006
KGRI 220953Z AUTO 23006KT 10SM CLR 02/01 A3009 RMK AO2 SLP201 T00170006
KGRI 220853Z AUTO 23004KT 10SM CLR 03/02 A3006 RMK AO2 SLP190 T00280017 53001
KGRI 220753Z AUTO 27007KT 10SM CLR 03/02 A3004 RMK AO2 SLP181 T00330022
KGRI 220653Z AUTO 26005KT 10SM CLR 03/02 A3005 RMK AO2 SLP184 T00280022
KGRI 220553Z AUTO 24004KT 10SM CLR 04/03 A3006 RMK AO2 SLP187 T00390028 10100 20039 402060039 51021
KGRI 220453Z AUTO 24003KT 10SM CLR 05/03 A3003 RMK AO2 SLP178 T00500033
KGRI 220353Z AUTO 26003KT 10SM CLR 06/04 A3002 RMK AO2 SLP169 T00610044